Appleton, Idaho
Current Conditions -  °F | °C
As of 11:53 AM on Friday 21 Nov 2014 (Local Time) from KJER Reporting Station
Clear Clear  
Wind Chill:   Ceiling: Unl
Heat Index:   Visibility: 10mi
Dew Point: -1°   Wind: 8mph
Humidity: 68%   Direction: 80°E
Pressure: 30.01"   Gusts: NA
Location:  42.7238°N, 114.338°W
Report Text: KJER 211853Z AUTO 08007KT 10SM CLR 04/M01 A3001 RMK AO2 SLP182 T00441011
Loading
Personal Weather Stations






























Interactive Weather Map New forecast layout! Learn more

10-Day Weather Forecast

Advertisements
Track Severe Weather on mobile